Time;durP1;ratioP1;P1;durP2;ratioP2;P2;SDS_P1;SDS_P2;PMS_P1;PMS_P2;Temp;Humidity;BMP_temperature;BMP_pressure;BME280_temperature;BME280_humidity;BME280_pressure;Samples;Min_cycle;Max_cycle;Signal;HPM_P1;HPM_P2
2021/08/26 00:08:13;;;;;;;8.50;4.70;;;;;;;13.39;64.86;98635.67;461115;1195;141818;-60
2021/08/26 00:18:21;;;;;;;6.30;4.60;;;;;;;13.36;65.18;98625.09;472209;1195;142068;-60
2021/08/26 00:28:27;;;;;;;7.10;4.40;;;;;;;13.33;65.36;98597.55;466072;1195;141820;-58
2021/08/26 00:38:32;;;;;;;6.60;4.30;;;;;;;13.32;65.78;98588.54;456289;1196;143142;-61
2021/08/26 00:48:38;;;;;;;6.00;4.60;;;;;;;13.28;66.73;98580.61;471837;1195;141261;-60
2021/08/26 00:58:47;;;;;;;5.40;4.30;;;;;;;13.24;67.18;98569.70;471229;1195;141712;-61
2021/08/26 01:08:56;;;;;;;;;;;;;;;13.21;67.89;98562.98;472284;1194;141294;-61
2021/08/26 01:19:02;;;;;;;7.70;5.10;;;;;;;13.13;68.72;98554.06;472489;1194;128391;-60
2021/08/26 01:29:09;;;;;;;7.30;4.70;;;;;;;13.01;69.45;98545.29;471119;1195;141877;-60
2021/08/26 01:39:17;;;;;;;9.40;4.80;;;;;;;12.97;69.93;98544.40;472163;1195;142357;-61
2021/08/26 01:49:23;;;;;;;6.00;3.90;;;;;;;12.93;70.50;98532.83;472629;1194;141164;-61
2021/08/26 01:59:29;;;;;;;6.90;4.60;;;;;;;12.88;70.97;98530.98;471008;1195;142597;-61
2021/08/26 02:09:35;;;;;;;6.40;5.00;;;;;;;12.84;71.34;98519.42;471711;1196;141109;-61
2021/08/26 02:19:41;;;;;;;5.50;4.20;;;;;;;12.79;71.77;98508.25;469537;1196;141027;-59
2021/08/26 02:29:47;;;;;;;7.70;4.40;;;;;;;12.76;72.29;98505.73;471773;1196;142465;-61
2021/08/26 02:39:53;;;;;;;5.40;3.90;;;;;;;12.67;72.93;98499.63;469614;1195;141829;-63
2021/08/26 02:49:59;;;;;;;7.70;5.10;;;;;;;12.56;73.57;98492.72;471418;1195;141687;-62
2021/08/26 03:00:06;;;;;;;6.30;4.80;;;;;;;12.48;74.27;98481.74;471890;1195;141859;-61
2021/08/26 03:10:12;;;;;;;8.80;4.90;;;;;;;12.43;74.77;98473.71;472378;1184;141736;-61
2021/08/26 03:20:20;;;;;;;6.10;4.60;;;;;;;12.38;75.34;98469.74;471412;1195;141976;-62
2021/08/26 03:30:26;;;;;;;5.20;4.50;;;;;;;12.42;75.81;98465.75;472225;1194;143655;-62
2021/08/26 03:40:32;;;;;;;6.90;4.90;;;;;;;12.38;76.04;98460.98;468996;1195;141975;-59
2021/08/26 03:50:38;;;;;;;7.10;6.00;;;;;;;12.37;76.47;98456.50;464060;1195;141859;-62
2021/08/26 04:00:44;;;;;;;6.70;6.00;;;;;;;12.39;76.81;98448.98;472287;1191;145458;-62
2021/08/26 04:10:50;;;;;;;5.90;5.10;;;;;;;12.36;77.24;98449.41;470100;1195;141449;-60
2021/08/26 04:20:56;;;;;;;6.00;4.40;;;;;;;12.40;77.54;98440.28;466508;1195;140998;-60
2021/08/26 04:31:01;;;;;;;8.50;6.00;;;;;;;12.44;77.74;98435.05;461943;1195;140595;-62
2021/08/26 04:41:08;;;;;;;5.20;4.70;;;;;;;12.38;78.10;98430.66;471231;1195;143645;-62
2021/08/26 04:51:13;;;;;;;5.20;4.70;;;;;;;12.47;78.40;98422.77;471816;1195;144691;-61
2021/08/26 05:01:19;;;;;;;5.40;4.90;;;;;;;12.61;78.37;98420.17;471608;1195;143462;-61
2021/08/26 05:11:25;;;;;;;6.10;5.00;;;;;;;12.64;78.52;98415.88;471011;1195;142621;-62
2021/08/26 05:21:31;;;;;;;4.80;3.90;;;;;;;12.70;78.73;98413.41;471982;1195;141662;-61
2021/08/26 05:31:37;;;;;;;4.80;4.30;;;;;;;12.75;78.76;98411.65;464457;1192;141608;-58
2021/08/26 05:41:44;;;;;;;5.30;4.40;;;;;;;12.82;78.94;98405.77;462559;1195;210883;-60
2021/08/26 05:51:50;;;;;;;5.30;4.80;;;;;;;12.86;79.14;98403.53;472250;1195;141427;-60
2021/08/26 06:01:56;;;;;;;5.30;4.50;;;;;;;12.91;79.31;98404.23;471176;1191;142220;-61
2021/08/26 06:12:03;;;;;;;4.00;3.70;;;;;;;13.01;79.49;98407.73;465024;1195;140992;-60
2021/08/26 06:22:08;;;;;;;4.00;3.20;;;;;;;13.25;79.59;98408.85;472142;1195;140960;-60
2021/08/26 06:32:14;;;;;;;4.70;3.50;;;;;;;13.46;79.48;98409.36;471466;1195;141703;-61
2021/08/26 07:01:54;;;;;;;3.10;2.80;;;;;;;16.60;76.77;98397.80;449868;1211;10002371;-62
2021/08/26 07:11:59;;;;;;;3.80;3.10;;;;;;;18.32;72.45;98400.73;471135;1199;141873;-62
2021/08/26 07:22:03;;;;;;;3.70;3.00;;;;;;;18.56;71.53;98398.95;467364;1195;140482;-57
2021/08/26 07:32:07;;;;;;;2.10;1.90;;;;;;;21.74;66.57;98400.67;471795;1184;140735;-60
2021/08/26 07:42:11;;;;;;;2.10;1.90;;;;;;;24.58;63.85;98398.45;472334;1195;140159;-62
2021/08/26 07:52:15;;;;;;;2.30;2.10;;;;;;;31.47;54.57;98383.30;472226;1195;141265;-63
2021/08/26 08:02:18;;;;;;;2.00;1.90;;;;;;;33.13;47.18;98377.91;471604;1194;140109;-62
2021/08/26 08:12:22;;;;;;;1.80;1.70;;;;;;;32.66;43.52;98377.54;472188;1195;140989;-61
2021/08/26 08:22:26;;;;;;;1.80;1.70;;;;;;;31.05;42.32;98371.33;471949;1196;139139;-61
2021/08/26 08:32:30;;;;;;;3.40;1.80;;;;;;;30.42;41.85;98360.94;471706;1191;140534;-64
2021/08/26 08:42:34;;;;;;;4.80;2.30;;;;;;;28.21;42.48;98353.27;472518;1192;142844;-62
2021/08/26 08:52:39;;;;;;;8.50;1.70;;;;;;;26.71;43.93;98347.20;471366;1195;160691;-62
2021/08/26 09:02:43;;;;;;;6.70;2.20;;;;;;;26.22;43.98;98351.70;460788;1194;141488;-61
2021/08/26 09:12:49;;;;;;;2.30;1.80;;;;;;;24.46;45.30;98348.07;472508;1193;139425;-60
2021/08/26 09:23:05;;;;;;;1.60;1.50;;;;;;;23.02;47.85;98348.06;471735;1194;140919;-62
2021/08/26 09:33:10;;;;;;;3.20;1.60;;;;;;;23.28;48.33;98346.52;472653;1194;140640;-62
2021/08/26 09:43:13;;;;;;;3.00;2.10;;;;;;;23.32;48.29;98349.27;472580;1194;140505;-62
2021/08/26 09:53:18;;;;;;;4.70;1.70;;;;;;;22.86;48.79;98344.84;471752;1194;140330;-63
2021/08/26 10:03:31;;;;;;;5.10;2.10;;;;;;;22.48;49.55;98332.13;472768;1191;140528;-60
2021/08/26 10:13:35;;;;;;;5.90;2.50;;;;;;;22.26;49.38;98332.68;472553;1194;139943;-60
2021/08/26 10:23:44;;;;;;;4.90;2.30;;;;;;;20.92;50.64;98334.98;472679;1194;141432;-60
2021/08/26 10:33:48;;;;;;;8.70;2.70;;;;;;;20.58;52.58;98334.73;467743;1194;139418;-59
2021/08/26 10:43:57;;;;;;;3.70;1.80;;;;;;;22.04;51.39;98332.00;456093;1194;140736;-59
2021/08/26 10:54:24;;;;;;;2.10;1.50;;;;;;;21.78;50.98;98345.15;472706;1194;140521;-63
2021/08/26 11:04:30;;;;;;;4.40;2.30;;;;;;;20.37;53.84;98359.27;463052;1194;140729;-62
2021/08/26 11:14:35;;;;;;;1.40;1.00;;;;;;;19.06;54.93;98391.02;471870;1194;141264;-59
2021/08/26 11:24:56;;;;;;;2.50;0.90;;;;;;;17.51;56.93;98407.27;470475;1194;143617;-57
2021/08/26 11:35:00;;;;;;;1.20;1.00;;;;;;;17.20;58.38;98402.83;462737;1194;140231;-59
2021/08/26 11:45:18;;;;;;;1.50;1.30;;;;;;;17.39;58.91;98409.09;462516;1194;140386;-56
2021/08/26 11:55:23;;;;;;;4.80;1.30;;;;;;;17.09;60.21;98406.13;460579;1194;141337;-66
2021/08/26 12:05:28;;;;;;;2.10;1.40;;;;;;;17.03;61.57;98409.27;467670;1194;141027;-58
2021/08/26 12:15:34;;;;;;;2.80;1.50;;;;;;;17.12;62.11;98401.39;469421;1194;142224;-61
2021/08/26 12:25:39;;;;;;;1.10;1.00;;;;;;;17.82;62.50;98399.13;472038;1194;163277;-64
2021/08/26 12:35:45;;;;;;;1.70;1.30;;;;;;;18.68;60.64;98391.31;472893;1191;141409;-63
2021/08/26 12:45:49;;;;;;;1.20;1.10;;;;;;;18.67;59.92;98380.60;472825;1194;141558;-64
2021/08/26 12:55:59;;;;;;;1.80;1.40;;;;;;;18.79;59.73;98375.43;456051;1194;20002445;-64
2021/08/26 13:06:02;;;;;;;1.40;1.30;;;;;;;18.77;58.26;98371.72;472868;1194;142908;-64
2021/08/26 13:16:06;;;;;;;3.30;1.40;;;;;;;18.39;58.07;98365.61;469903;1191;140804;-61
2021/08/26 13:26:09;;;;;;;4.20;1.60;;;;;;;18.50;58.09;98367.64;469802;1194;140933;-65
2021/08/26 13:36:13;;;;;;;2.70;1.80;;;;;;;18.59;58.25;98364.41;472721;1194;140842;-62
2021/08/26 13:46:16;;;;;;;2.80;1.60;;;;;;;18.69;58.79;98370.13;472980;1183;140749;-63
2021/08/26 13:56:20;;;;;;;4.00;1.60;;;;;;;18.55;58.86;98368.91;472155;1183;141039;-63
2021/08/26 14:06:24;;;;;;;1.90;0.90;;;;;;;18.47;58.12;98384.31;472786;1194;141563;-61
2021/08/26 14:16:28;;;;;;;2.70;1.00;;;;;;;18.78;55.85;98397.83;472834;1194;142775;-63
2021/08/26 14:26:31;;;;;;;1.90;1.50;;;;;;;18.53;56.33;98414.73;472150;1191;143899;-61
2021/08/26 14:36:35;;;;;;;18.30;3.50;;;;;;;18.70;56.78;98405.29;472527;1195;140970;-61
2021/08/26 14:46:38;;;;;;;3.10;1.30;;;;;;;18.97;56.95;98405.70;471949;1194;141321;-61
2021/08/26 14:56:42;;;;;;;1.30;1.20;;;;;;;19.34;56.89;98404.36;456588;1195;10002115;-61
2021/08/26 15:06:45;;;;;;;5.90;2.00;;;;;;;19.48;56.67;98408.80;463692;1194;141872;-59
2021/08/26 15:16:48;;;;;;;12.20;2.30;;;;;;;19.72;55.62;98415.31;471914;1194;142089;-60
2021/08/26 15:26:51;;;;;;;3.20;0.80;;;;;;;19.27;54.84;98424.23;470864;1194;145622;-61
2021/08/26 15:36:54;;;;;;;3.50;0.90;;;;;;;18.78;54.92;98432.86;472519;1195;140433;-61
2021/08/26 15:46:59;;;;;;;3.80;1.20;;;;;;;18.24;55.14;98442.08;471955;1194;141007;-60
2021/08/26 15:57:10;;;;;;;3.20;1.10;;;;;;;17.70;55.74;98454.45;472496;1194;140505;-62
2021/08/26 16:07:14;;;;;;;6.70;1.40;;;;;;;17.23;56.67;98455.86;468757;1194;141240;-62
2021/08/26 16:17:17;;;;;;;3.40;1.30;;;;;;;16.94;57.97;98473.48;471791;1195;141204;-61
2021/08/26 16:27:20;;;;;;;4.10;2.20;;;;;;;16.65;59.13;98477.63;472446;1195;140219;-61
2021/08/26 16:37:23;;;;;;;2.20;1.40;;;;;;;16.26;60.37;98479.27;469387;1195;140837;-60
2021/08/26 16:47:27;;;;;;;4.30;3.80;;;;;;;16.04;61.83;98490.57;471630;1195;142033;-64
2021/08/26 16:57:30;;;;;;;7.00;3.10;;;;;;;15.90;63.10;98493.63;472477;1195;193104;-63
2021/08/26 17:07:33;;;;;;;3.60;1.90;;;;;;;15.81;64.03;98496.24;472783;1195;141212;-64
2021/08/26 17:17:37;;;;;;;3.10;2.80;;;;;;;15.74;64.60;98502.50;450835;1195;10002062;-62
2021/08/26 17:27:41;;;;;;;7.90;2.30;;;;;;;15.61;65.28;98504.66;472698;1194;142697;-62
2021/08/26 17:37:44;;;;;;;3.20;2.00;;;;;;;15.41;65.98;98515.00;471541;1195;141212;-62
2021/08/26 17:47:50;;;;;;;4.00;2.10;;;;;;;15.17;66.86;98522.27;472825;1191;140758;-63
2021/08/26 17:57:54;;;;;;;8.50;3.60;;;;;;;14.99;67.61;98540.48;470301;1194;141019;-62
2021/08/26 18:07:59;;;;;;;3.10;2.60;;;;;;;14.75;68.32;98549.34;463558;1195;10001978;-64
2021/08/26 18:18:03;;;;;;;6.40;3.10;;;;;;;14.59;68.97;98558.91;466301;1195;140969;-62
2021/08/26 18:28:06;;;;;;;5.00;2.90;;;;;;;14.46;68.80;98568.45;472766;1182;140817;-62
2021/08/26 18:38:09;;;;;;;4.00;2.40;;;;;;;14.39;68.82;98579.14;463239;1195;140332;-63
2021/08/26 18:48:12;;;;;;;5.50;2.50;;;;;;;14.34;69.05;98588.23;467001;1195;142267;-62
2021/08/26 18:58:16;;;;;;;3.50;2.60;;;;;;;14.25;68.93;98594.00;465854;1195;140851;-63
2021/08/26 19:08:20;;;;;;;3.60;2.50;;;;;;;14.17;69.29;98594.45;461468;1195;141089;-64
2021/08/26 19:18:23;;;;;;;2.70;2.50;;;;;;;14.06;69.89;98598.79;463392;1195;140237;-63
2021/08/26 19:28:26;;;;;;;3.10;1.90;;;;;;;13.97;70.41;98604.55;472558;1192;141511;-62
2021/08/26 19:38:29;;;;;;;4.70;2.00;;;;;;;13.89;70.86;98609.04;471228;1195;140794;-63
2021/08/26 19:48:33;;;;;;;3.30;2.50;;;;;;;13.70;71.10;98617.29;472059;1195;140251;-63
2021/08/26 19:58:36;;;;;;;3.30;2.90;;;;;;;13.47;71.59;98623.90;472100;1182;141769;-61
2021/08/26 20:08:39;;;;;;;3.60;2.30;;;;;;;13.24;72.06;98625.64;472479;1194;141187;-63
2021/08/26 20:18:42;;;;;;;4.70;3.90;;;;;;;12.97;72.63;98630.86;463481;1195;140853;-61
2021/08/26 20:28:45;;;;;;;6.30;3.00;;;;;;;12.70;73.06;98639.85;470202;1194;141419;-63
2021/08/26 20:38:50;;;;;;;7.40;3.30;;;;;;;12.43;73.72;98642.58;463852;1195;141492;-63
2021/08/26 20:48:54;;;;;;;5.20;3.40;;;;;;;12.32;74.38;98643.02;471957;1195;141088;-62
2021/08/26 20:58:57;;;;;;;3.10;2.50;;;;;;;12.27;74.91;98646.18;471401;1185;164030;-63
2021/08/26 21:09:00;;;;;;;5.70;3.80;;;;;;;12.21;75.28;98657.41;471947;1195;140613;-63
2021/08/26 21:19:04;;;;;;;7.60;4.30;;;;;;;12.20;75.91;98665.43;472089;1195;140972;-63
2021/08/26 21:29:08;;;;;;;4.50;4.10;;;;;;;12.23;76.29;98674.09;471776;1191;142498;-64
2021/08/26 21:39:12;;;;;;;6.60;5.40;;;;;;;12.25;76.58;98680.41;472516;1194;141287;-63
2021/08/26 21:49:17;;;;;;;8.70;5.90;;;;;;;12.35;76.95;98685.39;464287;1194;141933;-61
2021/08/26 21:59:20;;;;;;;7.20;4.90;;;;;;;12.45;76.99;98689.11;465478;1194;142899;-63
2021/08/26 22:09:24;;;;;;;10.50;5.60;;;;;;;12.34;76.89;98686.02;472607;1194;141610;-63
2021/08/26 22:19:27;;;;;;;8.50;5.20;;;;;;;12.09;77.09;98687.01;472517;1193;141981;-63
2021/08/26 22:29:30;;;;;;;7.60;5.40;;;;;;;11.87;77.44;98693.20;467657;1182;141357;-62
2021/08/26 22:39:35;;;;;;;6.20;5.60;;;;;;;11.76;77.82;98698.84;472698;1194;141393;-62
2021/08/26 22:49:38;;;;;;;5.00;3.90;;;;;;;11.87;78.00;98699.04;460758;1194;140791;-61
2021/08/26 22:59:41;;;;;;;5.00;3.70;;;;;;;11.79;78.00;98701.80;472446;1194;141406;-62
2021/08/26 23:09:44;;;;;;;5.10;3.80;;;;;;;11.57;77.96;98694.46;472692;1190;140676;-62
2021/08/26 23:19:47;;;;;;;4.70;3.10;;;;;;;11.27;78.03;98701.08;471620;1194;140920;-62
2021/08/26 23:29:50;;;;;;;4.80;3.20;;;;;;;10.99;78.51;98714.67;469418;1194;140963;-63
2021/08/26 23:39:54;;;;;;;4.10;3.70;;;;;;;10.73;78.63;98726.67;472687;1194;140754;-61
2021/08/26 23:49:58;;;;;;;3.30;3.00;;;;;;;10.49;78.99;98735.75;471909;1194;161031;-61
